sensor_id;sensor_type;location;lat;lon;timestamp;P1;durP1;ratioP1;P2;durP2;ratioP2
6015;SDS011;3036;49.960;8.454;2024-02-15T00:01:03;5.10;;;4.13;;
6015;SDS011;3036;49.960;8.454;2024-02-15T00:03:30;8.27;;;4.37;;
6015;SDS011;3036;49.960;8.454;2024-02-15T00:05:58;4.60;;;4.20;;
6015;SDS011;3036;49.960;8.454;2024-02-15T00:08:26;4.77;;;4.40;;
6015;SDS011;3036;49.960;8.454;2024-02-15T00:10:53;5.40;;;4.20;;
6015;SDS011;3036;49.960;8.454;2024-02-15T00:13:20;5.00;;;4.47;;
6015;SDS011;3036;49.960;8.454;2024-02-15T00:15:47;5.90;;;4.70;;
6015;SDS011;3036;49.960;8.454;2024-02-15T00:18:15;5.13;;;4.60;;
6015;SDS011;3036;49.960;8.454;2024-02-15T00:20:42;7.87;;;4.70;;
6015;SDS011;3036;49.960;8.454;2024-02-15T00:23:10;5.10;;;4.10;;
6015;SDS011;3036;49.960;8.454;2024-02-15T00:25:38;4.80;;;4.40;;
6015;SDS011;3036;49.960;8.454;2024-02-15T00:28:08;5.43;;;4.40;;
6015;SDS011;3036;49.960;8.454;2024-02-15T00:30:35;6.93;;;4.77;;
6015;SDS011;3036;49.960;8.454;2024-02-15T00:33:02;6.90;;;4.80;;
6015;SDS011;3036;49.960;8.454;2024-02-15T00:35:30;7.43;;;5.50;;
6015;SDS011;3036;49.960;8.454;2024-02-15T00:37:57;6.20;;;4.40;;
6015;SDS011;3036;49.960;8.454;2024-02-15T00:40:24;6.87;;;5.17;;
6015;SDS011;3036;49.960;8.454;2024-02-15T00:42:53;5.30;;;4.73;;
6015;SDS011;3036;49.960;8.454;2024-02-15T00:45:20;5.40;;;4.90;;
6015;SDS011;3036;49.960;8.454;2024-02-15T00:47:47;4.70;;;4.20;;
6015;SDS011;3036;49.960;8.454;2024-02-15T00:50:14;6.37;;;4.77;;
6015;SDS011;3036;49.960;8.454;2024-02-15T00:52:41;5.33;;;4.50;;
6015;SDS011;3036;49.960;8.454;2024-02-15T00:55:08;5.47;;;4.33;;
6015;SDS011;3036;49.960;8.454;2024-02-15T00:57:35;4.57;;;4.20;;
6015;SDS011;3036;49.960;8.454;2024-02-15T01:00:04;4.07;;;3.77;;
6015;SDS011;3036;49.960;8.454;2024-02-15T01:02:31;4.40;;;4.00;;
6015;SDS011;3036;49.960;8.454;2024-02-15T01:04:58;4.73;;;4.43;;
6015;SDS011;3036;49.960;8.454;2024-02-15T01:07:25;5.70;;;4.37;;
6015;SDS011;3036;49.960;8.454;2024-02-15T01:09:53;4.63;;;4.33;;
6015;SDS011;3036;49.960;8.454;2024-02-15T01:12:20;8.13;;;4.40;;
6015;SDS011;3036;49.960;8.454;2024-02-15T01:14:47;4.97;;;4.40;;
6015;SDS011;3036;49.960;8.454;2024-02-15T01:17:15;4.43;;;4.00;;
6015;SDS011;3036;49.960;8.454;2024-02-15T01:19:42;7.20;;;4.27;;
6015;SDS011;3036;49.960;8.454;2024-02-15T01:22:10;5.17;;;4.20;;
6015;SDS011;3036;49.960;8.454;2024-02-15T01:24:37;4.47;;;4.07;;
6015;SDS011;3036;49.960;8.454;2024-02-15T01:27:04;5.30;;;4.40;;
6015;SDS011;3036;49.960;8.454;2024-02-15T01:29:32;4.57;;;4.10;;
6015;SDS011;3036;49.960;8.454;2024-02-15T01:31:59;4.03;;;3.73;;
6015;SDS011;3036;49.960;8.454;2024-02-15T01:34:28;4.30;;;3.90;;
6015;SDS011;3036;49.960;8.454;2024-02-15T01:36:55;4.50;;;4.10;;
6015;SDS011;3036;49.960;8.454;2024-02-15T01:39:22;5.20;;;4.23;;
6015;SDS011;3036;49.960;8.454;2024-02-15T01:41:49;4.13;;;3.83;;
6015;SDS011;3036;49.960;8.454;2024-02-15T01:44:16;6.37;;;4.37;;
6015;SDS011;3036;49.960;8.454;2024-02-15T01:46:45;4.43;;;4.07;;
6015;SDS011;3036;49.960;8.454;2024-02-15T01:49:12;5.17;;;4.67;;
6015;SDS011;3036;49.960;8.454;2024-02-15T01:51:41;4.33;;;3.90;;
6015;SDS011;3036;49.960;8.454;2024-02-15T01:54:09;7.10;;;4.77;;
6015;SDS011;3036;49.960;8.454;2024-02-15T01:56:36;4.53;;;4.13;;
6015;SDS011;3036;49.960;8.454;2024-02-15T01:59:03;7.30;;;4.50;;
6015;SDS011;3036;49.960;8.454;2024-02-15T02:01:31;5.23;;;4.50;;
6015;SDS011;3036;49.960;8.454;2024-02-15T02:03:58;4.97;;;4.50;;
6015;SDS011;3036;49.960;8.454;2024-02-15T02:06:26;6.00;;;4.93;;
6015;SDS011;3036;49.960;8.454;2024-02-15T02:08:55;5.07;;;4.57;;
6015;SDS011;3036;49.960;8.454;2024-02-15T02:11:22;8.30;;;5.03;;
6015;SDS011;3036;49.960;8.454;2024-02-15T02:13:49;6.87;;;5.20;;
6015;SDS011;3036;49.960;8.454;2024-02-15T02:16:26;5.60;;;4.67;;
6015;SDS011;3036;49.960;8.454;2024-02-15T02:18:54;9.40;;;5.00;;
6015;SDS011;3036;49.960;8.454;2024-02-15T02:21:21;5.23;;;4.80;;
6015;SDS011;3036;49.960;8.454;2024-02-15T02:23:51;5.37;;;4.83;;
6015;SDS011;3036;49.960;8.454;2024-02-15T02:26:20;6.93;;;4.93;;
6015;SDS011;3036;49.960;8.454;2024-02-15T02:28:48;6.90;;;5.20;;
6015;SDS011;3036;49.960;8.454;2024-02-15T02:31:15;7.47;;;4.70;;
6015;SDS011;3036;49.960;8.454;2024-02-15T02:33:42;5.50;;;4.87;;
6015;SDS011;3036;49.960;8.454;2024-02-15T02:36:13;8.73;;;4.87;;
6015;SDS011;3036;49.960;8.454;2024-02-15T02:38:41;4.90;;;4.50;;
6015;SDS011;3036;49.960;8.454;2024-02-15T02:41:10;5.07;;;4.57;;
6015;SDS011;3036;49.960;8.454;2024-02-15T02:43:38;7.13;;;4.77;;
6015;SDS011;3036;49.960;8.454;2024-02-15T02:46:05;7.70;;;4.80;;
6015;SDS011;3036;49.960;8.454;2024-02-15T02:48:32;5.63;;;4.63;;
6015;SDS011;3036;49.960;8.454;2024-02-15T02:50:59;8.27;;;4.70;;
6015;SDS011;3036;49.960;8.454;2024-02-15T02:53:27;5.13;;;4.70;;
6015;SDS011;3036;49.960;8.454;2024-02-15T02:55:55;4.90;;;4.40;;
6015;SDS011;3036;49.960;8.454;2024-02-15T02:58:22;7.87;;;4.63;;
6015;SDS011;3036;49.960;8.454;2024-02-15T03:00:51;4.93;;;4.27;;
6015;SDS011;3036;49.960;8.454;2024-02-15T03:03:18;5.00;;;4.60;;
6015;SDS011;3036;49.960;8.454;2024-02-15T03:05:45;6.60;;;4.87;;
6015;SDS011;3036;49.960;8.454;2024-02-15T03:08:13;9.97;;;4.60;;
6015;SDS011;3036;49.960;8.454;2024-02-15T03:10:42;7.47;;;4.30;;
6015;SDS011;3036;49.960;8.454;2024-02-15T03:13:09;4.97;;;4.50;;
6015;SDS011;3036;49.960;8.454;2024-02-15T03:15:37;5.97;;;5.03;;
6015;SDS011;3036;49.960;8.454;2024-02-15T03:18:08;7.40;;;4.67;;
6015;SDS011;3036;49.960;8.454;2024-02-15T03:20:36;7.07;;;4.80;;
6015;SDS011;3036;49.960;8.454;2024-02-15T03:23:04;6.97;;;4.77;;
6015;SDS011;3036;49.960;8.454;2024-02-15T03:25:31;4.73;;;4.13;;
6015;SDS011;3036;49.960;8.454;2024-02-15T03:27:59;4.33;;;4.03;;
6015;SDS011;3036;49.960;8.454;2024-02-15T03:30:28;5.37;;;4.30;;
6015;SDS011;3036;49.960;8.454;2024-02-15T03:32:56;5.80;;;4.00;;
6015;SDS011;3036;49.960;8.454;2024-02-15T03:35:25;4.73;;;4.23;;
6015;SDS011;3036;49.960;8.454;2024-02-15T03:37:53;4.97;;;4.20;;
6015;SDS011;3036;49.960;8.454;2024-02-15T03:40:21;4.27;;;3.77;;
6015;SDS011;3036;49.960;8.454;2024-02-15T03:42:51;4.13;;;3.90;;
6015;SDS011;3036;49.960;8.454;2024-02-15T03:45:19;4.60;;;4.07;;
6015;SDS011;3036;49.960;8.454;2024-02-15T03:47:47;5.63;;;4.30;;
6015;SDS011;3036;49.960;8.454;2024-02-15T03:50:14;4.70;;;4.30;;
6015;SDS011;3036;49.960;8.454;2024-02-15T03:52:45;6.27;;;4.10;;
6015;SDS011;3036;49.960;8.454;2024-02-15T03:55:12;4.43;;;4.10;;
6015;SDS011;3036;49.960;8.454;2024-02-15T03:57:39;4.53;;;4.20;;
6015;SDS011;3036;49.960;8.454;2024-02-15T04:00:08;4.83;;;4.43;;
6015;SDS011;3036;49.960;8.454;2024-02-15T04:02:37;8.10;;;4.37;;
6015;SDS011;3036;49.960;8.454;2024-02-15T04:05:05;5.70;;;4.70;;
6015;SDS011;3036;49.960;8.454;2024-02-15T04:07:34;8.43;;;4.43;;
6015;SDS011;3036;49.960;8.454;2024-02-15T04:10:03;7.47;;;4.80;;
6015;SDS011;3036;49.960;8.454;2024-02-15T04:12:31;4.83;;;4.43;;
6015;SDS011;3036;49.960;8.454;2024-02-15T04:14:58;5.43;;;4.00;;
6015;SDS011;3036;49.960;8.454;2024-02-15T04:17:30;5.00;;;4.57;;
6015;SDS011;3036;49.960;8.454;2024-02-15T04:19:58;5.67;;;4.73;;
6015;SDS011;3036;49.960;8.454;2024-02-15T04:22:25;5.10;;;4.70;;
6015;SDS011;3036;49.960;8.454;2024-02-15T04:24:52;6.37;;;4.33;;
6015;SDS011;3036;49.960;8.454;2024-02-15T04:27:22;7.20;;;4.50;;
6015;SDS011;3036;49.960;8.454;2024-02-15T04:29:50;5.13;;;4.57;;
6015;SDS011;3036;49.960;8.454;2024-02-15T04:32:17;11.67;;;4.23;;
6015;SDS011;3036;49.960;8.454;2024-02-15T04:34:44;4.47;;;3.70;;
6015;SDS011;3036;49.960;8.454;2024-02-15T04:37:12;6.43;;;4.50;;
6015;SDS011;3036;49.960;8.454;2024-02-15T04:39:39;6.37;;;4.17;;
6015;SDS011;3036;49.960;8.454;2024-02-15T04:42:06;4.30;;;3.77;;
6015;SDS011;3036;49.960;8.454;2024-02-15T04:44:38;5.37;;;3.90;;
6015;SDS011;3036;49.960;8.454;2024-02-15T04:47:05;6.93;;;4.47;;
6015;SDS011;3036;49.960;8.454;2024-02-15T04:49:32;4.43;;;4.03;;
6015;SDS011;3036;49.960;8.454;2024-02-15T04:51:59;6.13;;;4.00;;
6015;SDS011;3036;49.960;8.454;2024-02-15T04:54:27;5.07;;;4.07;;
6015;SDS011;3036;49.960;8.454;2024-02-15T04:56:55;4.40;;;4.10;;
6015;SDS011;3036;49.960;8.454;2024-02-15T04:59:22;4.67;;;4.10;;
6015;SDS011;3036;49.960;8.454;2024-02-15T05:01:52;4.63;;;4.13;;
6015;SDS011;3036;49.960;8.454;2024-02-15T05:04:19;5.87;;;4.27;;
6015;SDS011;3036;49.960;8.454;2024-02-15T05:06:47;4.47;;;4.00;;
6015;SDS011;3036;49.960;8.454;2024-02-15T05:09:14;4.83;;;4.37;;
6015;SDS011;3036;49.960;8.454;2024-02-15T05:11:43;5.87;;;3.87;;
6015;SDS011;3036;49.960;8.454;2024-02-15T05:14:12;5.63;;;4.10;;
6015;SDS011;3036;49.960;8.454;2024-02-15T05:16:44;4.63;;;3.90;;
6015;SDS011;3036;49.960;8.454;2024-02-15T05:19:14;4.00;;;3.70;;
6015;SDS011;3036;49.960;8.454;2024-02-15T05:21:41;4.93;;;3.90;;
6015;SDS011;3036;49.960;8.454;2024-02-15T05:24:10;7.47;;;3.97;;
6015;SDS011;3036;49.960;8.454;2024-02-15T05:26:38;6.87;;;3.90;;
6015;SDS011;3036;49.960;8.454;2024-02-15T05:29:07;13.00;;;4.07;;
6015;SDS011;3036;49.960;8.454;2024-02-15T05:31:34;3.67;;;3.43;;
6015;SDS011;3036;49.960;8.454;2024-02-15T05:34:03;4.00;;;3.60;;
6015;SDS011;3036;49.960;8.454;2024-02-15T05:36:31;4.07;;;3.73;;
6015;SDS011;3036;49.960;8.454;2024-02-15T05:38:59;7.27;;;3.90;;
6015;SDS011;3036;49.960;8.454;2024-02-15T05:41:27;4.67;;;3.57;;
6015;SDS011;3036;49.960;8.454;2024-02-15T05:43:54;4.10;;;3.40;;
6015;SDS011;3036;49.960;8.454;2024-02-15T05:46:22;6.90;;;3.83;;
6015;SDS011;3036;49.960;8.454;2024-02-15T05:48:49;3.67;;;3.33;;
6015;SDS011;3036;49.960;8.454;2024-02-15T05:51:17;3.93;;;3.57;;
6015;SDS011;3036;49.960;8.454;2024-02-15T05:53:46;5.53;;;3.57;;
6015;SDS011;3036;49.960;8.454;2024-02-15T05:56:14;4.10;;;3.70;;
6015;SDS011;3036;49.960;8.454;2024-02-15T05:58:41;3.80;;;3.40;;
6015;SDS011;3036;49.960;8.454;2024-02-15T06:01:08;5.30;;;3.47;;
6015;SDS011;3036;49.960;8.454;2024-02-15T06:03:37;9.57;;;3.57;;
6015;SDS011;3036;49.960;8.454;2024-02-15T06:06:06;5.07;;;3.70;;
6015;SDS011;3036;49.960;8.454;2024-02-15T06:08:33;7.10;;;3.60;;
6015;SDS011;3036;49.960;8.454;2024-02-15T06:11:02;9.43;;;4.17;;
6015;SDS011;3036;49.960;8.454;2024-02-15T06:13:30;3.30;;;3.10;;
6015;SDS011;3036;49.960;8.454;2024-02-15T06:15:57;3.67;;;3.37;;
6015;SDS011;3036;49.960;8.454;2024-02-15T06:18:25;7.20;;;3.30;;
6015;SDS011;3036;49.960;8.454;2024-02-15T06:20:54;4.20;;;3.57;;
6015;SDS011;3036;49.960;8.454;2024-02-15T06:23:22;5.33;;;3.40;;
6015;SDS011;3036;49.960;8.454;2024-02-15T06:25:51;3.67;;;3.47;;
6015;SDS011;3036;49.960;8.454;2024-02-15T06:28:20;5.83;;;3.30;;
6015;SDS011;3036;49.960;8.454;2024-02-15T06:31:01;8.57;;;3.80;;
6015;SDS011;3036;49.960;8.454;2024-02-15T06:33:46;7.77;;;3.43;;
6015;SDS011;3036;49.960;8.454;2024-02-15T06:36:30;3.13;;;2.83;;
6015;SDS011;3036;49.960;8.454;2024-02-15T06:39:15;3.60;;;3.30;;
6015;SDS011;3036;49.960;8.454;2024-02-15T06:42:00;7.90;;;3.40;;
6015;SDS011;3036;49.960;8.454;2024-02-15T06:44:29;6.87;;;3.80;;
6015;SDS011;3036;49.960;8.454;2024-02-15T06:46:56;5.17;;;3.60;;
6015;SDS011;3036;49.960;8.454;2024-02-15T06:49:23;3.57;;;3.27;;
6015;SDS011;3036;49.960;8.454;2024-02-15T06:51:50;4.27;;;3.30;;
6015;SDS011;3036;49.960;8.454;2024-02-15T06:54:17;4.27;;;3.40;;
6015;SDS011;3036;49.960;8.454;2024-02-15T06:56:44;4.03;;;3.73;;
6015;SDS011;3036;49.960;8.454;2024-02-15T06:59:12;5.43;;;3.17;;
6015;SDS011;3036;49.960;8.454;2024-02-15T07:01:41;5.50;;;3.10;;
6015;SDS011;3036;49.960;8.454;2024-02-15T07:04:08;3.20;;;3.00;;
6015;SDS011;3036;49.960;8.454;2024-02-15T07:06:36;5.47;;;3.10;;
6015;SDS011;3036;49.960;8.454;2024-02-15T07:09:03;5.90;;;2.77;;
6015;SDS011;3036;49.960;8.454;2024-02-15T07:11:31;3.57;;;2.90;;
6015;SDS011;3036;49.960;8.454;2024-02-15T07:13:59;3.67;;;3.40;;
6015;SDS011;3036;49.960;8.454;2024-02-15T07:16:26;5.70;;;3.83;;
6015;SDS011;3036;49.960;8.454;2024-02-15T07:18:56;8.57;;;3.40;;
6015;SDS011;3036;49.960;8.454;2024-02-15T07:21:24;4.13;;;3.23;;
6015;SDS011;3036;49.960;8.454;2024-02-15T07:23:52;6.37;;;3.37;;
6015;SDS011;3036;49.960;8.454;2024-02-15T07:26:19;6.03;;;3.67;;
6015;SDS011;3036;49.960;8.454;2024-02-15T07:28:49;4.43;;;3.10;;
6015;SDS011;3036;49.960;8.454;2024-02-15T07:31:17;10.33;;;3.70;;
6015;SDS011;3036;49.960;8.454;2024-02-15T07:33:46;3.47;;;3.17;;
6015;SDS011;3036;49.960;8.454;2024-02-15T07:36:15;5.50;;;3.37;;
6015;SDS011;3036;49.960;8.454;2024-02-15T07:38:44;5.40;;;3.37;;
6015;SDS011;3036;49.960;8.454;2024-02-15T07:41:13;3.53;;;3.20;;
6015;SDS011;3036;49.960;8.454;2024-02-15T07:43:40;3.37;;;3.13;;
6015;SDS011;3036;49.960;8.454;2024-02-15T07:46:10;4.00;;;2.97;;
6015;SDS011;3036;49.960;8.454;2024-02-15T07:48:39;8.30;;;2.90;;
6015;SDS011;3036;49.960;8.454;2024-02-15T07:51:10;3.40;;;3.00;;
6015;SDS011;3036;49.960;8.454;2024-02-15T07:53:38;3.70;;;3.30;;
6015;SDS011;3036;49.960;8.454;2024-02-15T07:56:06;3.93;;;3.00;;
6015;SDS011;3036;49.960;8.454;2024-02-15T07:58:33;7.43;;;3.40;;
6015;SDS011;3036;49.960;8.454;2024-02-15T08:01:00;3.60;;;3.00;;
6015;SDS011;3036;49.960;8.454;2024-02-15T08:03:29;3.63;;;3.00;;
6015;SDS011;3036;49.960;8.454;2024-02-15T08:05:56;3.63;;;3.43;;
6015;SDS011;3036;49.960;8.454;2024-02-15T08:08:23;3.20;;;3.00;;
6015;SDS011;3036;49.960;8.454;2024-02-15T08:10:51;5.13;;;3.07;;
6015;SDS011;3036;49.960;8.454;2024-02-15T08:13:18;3.50;;;3.20;;
6015;SDS011;3036;49.960;8.454;2024-02-15T08:15:47;5.17;;;3.60;;
6015;SDS011;3036;49.960;8.454;2024-02-15T08:18:17;3.57;;;3.13;;
6015;SDS011;3036;49.960;8.454;2024-02-15T08:20:45;7.50;;;3.60;;
6015;SDS011;3036;49.960;8.454;2024-02-15T08:23:12;6.67;;;3.67;;
6015;SDS011;3036;49.960;8.454;2024-02-15T08:25:39;4.70;;;3.10;;
6015;SDS011;3036;49.960;8.454;2024-02-15T08:28:08;3.17;;;2.97;;
6015;SDS011;3036;49.960;8.454;2024-02-15T08:30:36;6.57;;;3.47;;
6015;SDS011;3036;49.960;8.454;2024-02-15T08:33:03;7.57;;;3.77;;
6015;SDS011;3036;49.960;8.454;2024-02-15T08:35:30;9.23;;;4.00;;
6015;SDS011;3036;49.960;8.454;2024-02-15T08:37:58;6.20;;;3.60;;
6015;SDS011;3036;49.960;8.454;2024-02-15T08:40:25;3.13;;;2.83;;
6015;SDS011;3036;49.960;8.454;2024-02-15T08:42:52;6.60;;;3.27;;
6015;SDS011;3036;49.960;8.454;2024-02-15T08:45:21;4.00;;;2.83;;
6015;SDS011;3036;49.960;8.454;2024-02-15T08:47:49;4.77;;;2.70;;
6015;SDS011;3036;49.960;8.454;2024-02-15T08:50:18;5.07;;;3.50;;
6015;SDS011;3036;49.960;8.454;2024-02-15T08:52:48;3.43;;;3.23;;
6015;SDS011;3036;49.960;8.454;2024-02-15T08:55:15;5.20;;;2.83;;
6015;SDS011;3036;49.960;8.454;2024-02-15T08:57:42;5.87;;;3.33;;
6015;SDS011;3036;49.960;8.454;2024-02-15T09:00:10;5.90;;;2.97;;
6015;SDS011;3036;49.960;8.454;2024-02-15T09:02:40;3.50;;;3.20;;
6015;SDS011;3036;49.960;8.454;2024-02-15T09:05:07;3.33;;;2.70;;
6015;SDS011;3036;49.960;8.454;2024-02-15T09:07:34;5.63;;;3.07;;
6015;SDS011;3036;49.960;8.454;2024-02-15T09:10:01;3.37;;;3.07;;
6015;SDS011;3036;49.960;8.454;2024-02-15T09:12:28;5.37;;;3.20;;
6015;SDS011;3036;49.960;8.454;2024-02-15T09:14:56;2.90;;;2.70;;
6015;SDS011;3036;49.960;8.454;2024-02-15T09:17:23;2.93;;;2.73;;
6015;SDS011;3036;49.960;8.454;2024-02-15T09:19:52;8.60;;;2.87;;
6015;SDS011;3036;49.960;8.454;2024-02-15T09:22:19;3.88;;;3.53;;
6015;SDS011;3036;49.960;8.454;2024-02-15T09:24:46;3.40;;;2.93;;
6015;SDS011;3036;49.960;8.454;2024-02-15T09:27:13;4.03;;;2.87;;
6015;SDS011;3036;49.960;8.454;2024-02-15T09:29:40;6.90;;;2.95;;
6015;SDS011;3036;49.960;8.454;2024-02-15T09:32:07;3.73;;;3.20;;
6015;SDS011;3036;49.960;8.454;2024-02-15T09:34:34;3.28;;;2.90;;
6015;SDS011;3036;49.960;8.454;2024-02-15T09:37:03;5.15;;;3.10;;
6015;SDS011;3036;49.960;8.454;2024-02-15T09:39:30;5.37;;;3.40;;
6015;SDS011;3036;49.960;8.454;2024-02-15T09:41:57;4.68;;;2.70;;
6015;SDS011;3036;49.960;8.454;2024-02-15T09:44:24;3.70;;;2.72;;
6015;SDS011;3036;49.960;8.454;2024-02-15T09:46:55;4.65;;;3.08;;
6015;SDS011;3036;49.960;8.454;2024-02-15T09:49:23;3.25;;;2.75;;
6015;SDS011;3036;49.960;8.454;2024-02-15T09:51:50;3.88;;;2.53;;
6015;SDS011;3036;49.960;8.454;2024-02-15T09:54:19;2.58;;;2.38;;
6015;SDS011;3036;49.960;8.454;2024-02-15T09:56:47;3.60;;;3.22;;
6015;SDS011;3036;49.960;8.454;2024-02-15T09:59:15;3.70;;;2.75;;
6015;SDS011;3036;49.960;8.454;2024-02-15T10:01:43;6.35;;;2.75;;
6015;SDS011;3036;49.960;8.454;2024-02-15T10:04:12;3.13;;;2.80;;
6015;SDS011;3036;49.960;8.454;2024-02-15T10:06:41;4.13;;;2.65;;
6015;SDS011;3036;49.960;8.454;2024-02-15T10:09:24;5.22;;;2.50;;
6015;SDS011;3036;49.960;8.454;2024-02-15T10:11:53;2.92;;;2.70;;
6015;SDS011;3036;49.960;8.454;2024-02-15T10:14:22;3.10;;;2.63;;
6015;SDS011;3036;49.960;8.454;2024-02-15T10:16:49;17.95;;;3.25;;
6015;SDS011;3036;49.960;8.454;2024-02-15T10:19:17;3.20;;;2.35;;
6015;SDS011;3036;49.960;8.454;2024-02-15T10:21:45;6.88;;;3.20;;
6015;SDS011;3036;49.960;8.454;2024-02-15T10:24:12;2.95;;;2.65;;
6015;SDS011;3036;49.960;8.454;2024-02-15T10:26:41;5.00;;;2.40;;
6015;SDS011;3036;49.960;8.454;2024-02-15T10:29:08;3.30;;;2.90;;
6015;SDS011;3036;49.960;8.454;2024-02-15T10:31:36;7.43;;;2.55;;
6015;SDS011;3036;49.960;8.454;2024-02-15T10:34:05;8.15;;;2.70;;
6015;SDS011;3036;49.960;8.454;2024-02-15T10:36:32;5.10;;;2.40;;
6015;SDS011;3036;49.960;8.454;2024-02-15T10:39:12;2.85;;;2.65;;
6015;SDS011;3036;49.960;8.454;2024-02-15T10:41:46;2.67;;;2.45;;
6015;SDS011;3036;49.960;8.454;2024-02-15T10:44:17;3.22;;;2.42;;
6015;SDS011;3036;49.960;8.454;2024-02-15T10:46:44;2.95;;;2.63;;
6015;SDS011;3036;49.960;8.454;2024-02-15T10:49:14;2.63;;;2.30;;
6015;SDS011;3036;49.960;8.454;2024-02-15T10:51:43;3.45;;;2.17;;
6015;SDS011;3036;49.960;8.454;2024-02-15T10:54:11;5.15;;;2.50;;
6015;SDS011;3036;49.960;8.454;2024-02-15T10:56:41;2.45;;;2.35;;
6015;SDS011;3036;49.960;8.454;2024-02-15T10:59:16;5.93;;;2.05;;
6015;SDS011;3036;49.960;8.454;2024-02-15T11:01:44;2.58;;;2.35;;
6015;SDS011;3036;49.960;8.454;2024-02-15T11:04:14;5.32;;;2.28;;
6015;SDS011;3036;49.960;8.454;2024-02-15T11:06:42;4.07;;;2.20;;
6015;SDS011;3036;49.960;8.454;2024-02-15T11:09:09;2.85;;;2.58;;
6015;SDS011;3036;49.960;8.454;2024-02-15T11:11:38;2.20;;;2.03;;
6015;SDS011;3036;49.960;8.454;2024-02-15T11:14:27;6.75;;;2.40;;
6015;SDS011;3036;49.960;8.454;2024-02-15T11:16:54;2.92;;;2.00;;
6015;SDS011;3036;49.960;8.454;2024-02-15T11:19:41;4.20;;;2.58;;
6015;SDS011;3036;49.960;8.454;2024-02-15T11:22:11;3.42;;;2.67;;
6015;SDS011;3036;49.960;8.454;2024-02-15T11:24:45;3.42;;;3.15;;
6015;SDS011;3036;49.960;8.454;2024-02-15T11:27:12;2.30;;;2.10;;
6015;SDS011;3036;49.960;8.454;2024-02-15T11:29:51;2.72;;;2.30;;
6015;SDS011;3036;49.960;8.454;2024-02-15T11:32:36;3.13;;;2.97;;
6015;SDS011;3036;49.960;8.454;2024-02-15T11:35:04;4.22;;;2.80;;
6015;SDS011;3036;49.960;8.454;2024-02-15T11:37:57;2.33;;;2.05;;
6015;SDS011;3036;49.960;8.454;2024-02-15T11:40:28;3.70;;;2.33;;
6015;SDS011;3036;49.960;8.454;2024-02-15T11:42:56;2.70;;;2.08;;
6015;SDS011;3036;49.960;8.454;2024-02-15T11:45:25;4.05;;;2.05;;
6015;SDS011;3036;49.960;8.454;2024-02-15T11:47:57;5.57;;;2.65;;
6015;SDS011;3036;49.960;8.454;2024-02-15T11:50:27;3.83;;;2.47;;
6015;SDS011;3036;49.960;8.454;2024-02-15T11:53:03;3.03;;;2.30;;
6015;SDS011;3036;49.960;8.454;2024-02-15T11:55:34;3.03;;;1.90;;
6015;SDS011;3036;49.960;8.454;2024-02-15T11:58:01;2.10;;;2.00;;
6015;SDS011;3036;49.960;8.454;2024-02-15T12:00:32;2.63;;;2.20;;
6015;SDS011;3036;49.960;8.454;2024-02-15T12:03:17;3.22;;;3.00;;
6015;SDS011;3036;49.960;8.454;2024-02-15T12:06:02;2.17;;;2.08;;
6015;SDS011;3036;49.960;8.454;2024-02-15T12:08:47;3.25;;;2.80;;
6015;SDS011;3036;49.960;8.454;2024-02-15T12:11:32;3.38;;;2.40;;
6015;SDS011;3036;49.960;8.454;2024-02-15T12:14:17;1.95;;;1.85;;
6015;SDS011;3036;49.960;8.454;2024-02-15T12:17:03;4.50;;;2.08;;
6015;SDS011;3036;49.960;8.454;2024-02-15T12:19:47;1.90;;;1.80;;
6015;SDS011;3036;49.960;8.454;2024-02-15T12:22:14;4.45;;;1.80;;
6015;SDS011;3036;49.960;8.454;2024-02-15T12:24:41;5.05;;;2.15;;
6015;SDS011;3036;49.960;8.454;2024-02-15T12:27:09;2.83;;;1.80;;
6015;SDS011;3036;49.960;8.454;2024-02-15T12:29:37;1.45;;;1.38;;
6015;SDS011;3036;49.960;8.454;2024-02-15T12:32:05;4.00;;;1.17;;
6015;SDS011;3036;49.960;8.454;2024-02-15T12:34:32;2.05;;;1.30;;
6015;SDS011;3036;49.960;8.454;2024-02-15T12:37:05;1.50;;;1.40;;
6015;SDS011;3036;49.960;8.454;2024-02-15T12:39:33;1.75;;;1.50;;
6015;SDS011;3036;49.960;8.454;2024-02-15T12:42:02;1.23;;;1.20;;
6015;SDS011;3036;49.960;8.454;2024-02-15T12:44:29;4.85;;;1.40;;
6015;SDS011;3036;49.960;8.454;2024-02-15T12:47:00;2.72;;;1.20;;
6015;SDS011;3036;49.960;8.454;2024-02-15T12:49:29;2.97;;;0.88;;
6015;SDS011;3036;49.960;8.454;2024-02-15T12:54:43;1.60;;;1.10;;
6015;SDS011;3036;49.960;8.454;2024-02-15T12:57:10;1.15;;;1.13;;
6015;SDS011;3036;49.960;8.454;2024-02-15T12:59:39;2.92;;;1.20;;
6015;SDS011;3036;49.960;8.454;2024-02-15T13:02:07;1.38;;;0.98;;
6015;SDS011;3036;49.960;8.454;2024-02-15T13:04:36;2.22;;;0.90;;
6015;SDS011;3036;49.960;8.454;2024-02-15T13:07:03;2.47;;;0.95;;
6015;SDS011;3036;49.960;8.454;2024-02-15T13:09:32;1.42;;;1.00;;
6015;SDS011;3036;49.960;8.454;2024-02-15T13:11:59;1.50;;;0.90;;
6015;SDS011;3036;49.960;8.454;2024-02-15T13:14:26;1.48;;;1.10;;
6015;SDS011;3036;49.960;8.454;2024-02-15T13:16:54;1.48;;;0.88;;
6015;SDS011;3036;49.960;8.454;2024-02-15T13:19:21;1.42;;;0.93;;
6015;SDS011;3036;49.960;8.454;2024-02-15T13:21:49;1.13;;;0.90;;
6015;SDS011;3036;49.960;8.454;2024-02-15T13:24:18;2.83;;;1.08;;
6015;SDS011;3036;49.960;8.454;2024-02-15T13:26:46;1.10;;;1.10;;
6015;SDS011;3036;49.960;8.454;2024-02-15T13:29:13;1.60;;;1.10;;
6015;SDS011;3036;49.960;8.454;2024-02-15T13:31:40;2.60;;;1.00;;
6015;SDS011;3036;49.960;8.454;2024-02-15T13:34:07;3.47;;;1.50;;
6015;SDS011;3036;49.960;8.454;2024-02-15T13:36:34;0.93;;;0.93;;
6015;SDS011;3036;49.960;8.454;2024-02-15T13:39:03;3.72;;;1.50;;
6015;SDS011;3036;49.960;8.454;2024-02-15T13:41:30;2.20;;;1.08;;
6015;SDS011;3036;49.960;8.454;2024-02-15T13:43:57;2.10;;;1.10;;
6015;SDS011;3036;49.960;8.454;2024-02-15T13:46:24;2.80;;;0.85;;
6015;SDS011;3036;49.960;8.454;2024-02-15T13:48:51;1.33;;;1.02;;
6015;SDS011;3036;49.960;8.454;2024-02-15T13:51:18;1.02;;;0.77;;
6015;SDS011;3036;49.960;8.454;2024-02-15T13:53:45;1.20;;;0.90;;
6015;SDS011;3036;49.960;8.454;2024-02-15T13:56:14;2.00;;;1.15;;
6015;SDS011;3036;49.960;8.454;2024-02-15T13:58:41;1.70;;;1.30;;
6015;SDS011;3036;49.960;8.454;2024-02-15T14:01:08;3.25;;;1.38;;
6015;SDS011;3036;49.960;8.454;2024-02-15T14:03:39;2.65;;;1.08;;
6015;SDS011;3036;49.960;8.454;2024-02-15T14:06:06;2.47;;;0.98;;
6015;SDS011;3036;49.960;8.454;2024-02-15T14:08:33;2.67;;;0.90;;
6015;SDS011;3036;49.960;8.454;2024-02-15T14:11:00;4.20;;;1.20;;
6015;SDS011;3036;49.960;8.454;2024-02-15T14:13:29;3.22;;;1.10;;
6015;SDS011;3036;49.960;8.454;2024-02-15T14:15:56;2.15;;;1.20;;
6015;SDS011;3036;49.960;8.454;2024-02-15T14:18:24;4.82;;;1.23;;
6015;SDS011;3036;49.960;8.454;2024-02-15T14:20:53;5.53;;;1.30;;
6015;SDS011;3036;49.960;8.454;2024-02-15T14:23:20;2.55;;;2.40;;
6015;SDS011;3036;49.960;8.454;2024-02-15T14:25:47;4.20;;;1.52;;
6015;SDS011;3036;49.960;8.454;2024-02-15T14:28:15;4.78;;;1.58;;
6015;SDS011;3036;49.960;8.454;2024-02-15T14:30:43;5.38;;;1.60;;
6015;SDS011;3036;49.960;8.454;2024-02-15T14:33:28;4.78;;;1.50;;
6015;SDS011;3036;49.960;8.454;2024-02-15T14:35:55;7.03;;;5.22;;
6015;SDS011;3036;49.960;8.454;2024-02-15T14:38:24;2.83;;;2.20;;
6015;SDS011;3036;49.960;8.454;2024-02-15T14:40:51;2.00;;;1.80;;
6015;SDS011;3036;49.960;8.454;2024-02-15T14:43:20;4.93;;;1.10;;
6015;SDS011;3036;49.960;8.454;2024-02-15T14:45:48;1.90;;;1.45;;
6015;SDS011;3036;49.960;8.454;2024-02-15T14:48:16;4.80;;;1.50;;
6015;SDS011;3036;49.960;8.454;2024-02-15T14:50:45;1.95;;;1.80;;
6015;SDS011;3036;49.960;8.454;2024-02-15T14:53:15;3.60;;;1.85;;
6015;SDS011;3036;49.960;8.454;2024-02-15T14:55:43;2.67;;;1.90;;
6015;SDS011;3036;49.960;8.454;2024-02-15T14:58:11;4.80;;;1.52;;
6015;SDS011;3036;49.960;8.454;2024-02-15T15:00:40;27.23;;;12.93;;
6015;SDS011;3036;49.960;8.454;2024-02-15T15:03:11;8.15;;;5.80;;
6015;SDS011;3036;49.960;8.454;2024-02-15T15:05:38;2.88;;;1.80;;
6015;SDS011;3036;49.960;8.454;2024-02-15T15:08:24;7.15;;;3.75;;
6015;SDS011;3036;49.960;8.454;2024-02-15T15:11:08;11.73;;;5.20;;
6015;SDS011;3036;49.960;8.454;2024-02-15T15:13:53;4.15;;;3.75;;
6015;SDS011;3036;49.960;8.454;2024-02-15T15:16:20;10.48;;;5.28;;
6015;SDS011;3036;49.960;8.454;2024-02-15T15:18:51;1.92;;;1.70;;
6015;SDS011;3036;49.960;8.454;2024-02-15T15:21:18;4.88;;;2.78;;
6015;SDS011;3036;49.960;8.454;2024-02-15T15:23:46;2.38;;;1.45;;
6015;SDS011;3036;49.960;8.454;2024-02-15T15:26:18;3.60;;;1.20;;
6015;SDS011;3036;49.960;8.454;2024-02-15T15:28:45;2.47;;;2.05;;